Wausaukee, Wisconsin
Current Conditions -  °F | °C
As of 7:15 AM on Monday 22 Dec 2014 (Local Time) from KMNM Reporting Station
Overcast Overcast  
Wind Chill: 28°   Ceiling: 3100
Heat Index: 36°   Visibility: 6mi
Dew Point: 30°   Wind: 12mph
Humidity: 81%   Direction: 180°S
Pressure: 29.93"   Gusts: NA
Location:  45.37°N, 87.95°W
Report Text: KMNM 221315Z AUTO 18010KT 6SM OVC031 02/M01 A2993 RMK AO1
Loading
Personal Weather Stations






























Interactive Weather Map New forecast layout! Learn more

10-Day Weather Forecast

Advertisements
Track Severe Weather on mobile